createdAt,value
2023-02-02T00:00:36.667Z,983.81
2023-02-02T00:01:36.689Z,983.89
2023-02-02T00:02:36.676Z,983.83
2023-02-02T00:03:36.704Z,983.82
2023-02-02T00:04:36.630Z,983.81
2023-02-02T00:05:36.649Z,983.81
2023-02-02T00:06:36.611Z,983.78
2023-02-02T00:07:36.627Z,983.73
2023-02-02T00:08:36.590Z,983.75
2023-02-02T00:09:36.625Z,983.75
2023-02-02T00:10:36.568Z,983.69
2023-02-02T00:11:36.587Z,983.66
2023-02-02T00:12:36.545Z,983.69
2023-02-02T00:13:36.557Z,983.63
2023-02-02T00:14:36.538Z,983.65
2023-02-02T00:15:36.528Z,983.76
2023-02-02T00:16:36.602Z,983.70
2023-02-02T00:17:36.511Z,983.65
2023-02-02T00:18:36.483Z,983.66
2023-02-02T00:19:36.537Z,983.73
2023-02-02T00:20:36.459Z,983.58
2023-02-02T00:21:36.481Z,983.60
2023-02-02T00:22:36.441Z,983.63
2023-02-02T00:23:36.458Z,983.66
2023-02-02T00:24:36.422Z,983.66
2023-02-02T00:25:36.454Z,983.63
2023-02-02T00:26:36.476Z,983.65
2023-02-02T00:27:36.431Z,983.57
2023-02-02T00:28:36.378Z,983.67
2023-02-02T00:29:36.396Z,983.66
2023-02-02T00:30:36.411Z,983.67
2023-02-02T00:31:36.439Z,983.75
2023-02-02T00:32:36.347Z,983.69
2023-02-02T00:33:36.346Z,983.72
2023-02-02T00:34:36.316Z,983.81
2023-02-02T00:35:36.346Z,983.84
2023-02-02T00:36:36.296Z,983.83
2023-02-02T00:37:36.320Z,983.89
2023-02-02T00:38:36.276Z,983.89
2023-02-02T00:39:36.308Z,983.92
2023-02-02T00:40:36.266Z,983.91
2023-02-02T00:41:36.256Z,984.01
2023-02-02T00:42:36.248Z,984.02
2023-02-02T00:43:36.259Z,984.07
2023-02-02T00:44:36.231Z,984.18
2023-02-02T00:45:36.308Z,984.14
2023-02-02T00:46:36.214Z,984.01
2023-02-02T00:47:36.212Z,984.02
2023-02-02T00:48:36.178Z,984.11
2023-02-02T00:49:36.191Z,984.05
2023-02-02T00:50:36.154Z,984.09
2023-02-02T00:51:36.163Z,984.09
2023-02-02T00:52:36.150Z,984.05
2023-02-02T00:53:36.158Z,984.15
2023-02-02T00:54:36.111Z,984.20
2023-02-02T00:55:36.120Z,984.24
2023-02-02T00:56:36.131Z,984.24
2023-02-02T00:57:36.117Z,984.17
2023-02-02T00:58:36.085Z,984.14
2023-02-02T00:59:36.094Z,984.26
2023-02-02T01:00:36.051Z,984.39
2023-02-02T01:01:36.057Z,984.53
2023-02-02T01:02:36.056Z,984.44
2023-02-02T01:03:36.047Z,984.35
2023-02-02T01:04:36.019Z,984.41
2023-02-02T01:05:36.031Z,984.33
2023-02-02T01:06:35.995Z,984.40
2023-02-02T01:07:35.999Z,984.38
2023-02-02T01:08:35.973Z,984.46
2023-02-02T01:09:35.969Z,984.46
2023-02-02T01:10:35.954Z,984.44
2023-02-02T01:11:35.948Z,984.46
2023-02-02T01:12:35.927Z,984.47
2023-02-02T01:13:35.964Z,984.40
2023-02-02T01:14:35.916Z,984.39
2023-02-02T01:15:35.919Z,984.36
2023-02-02T01:16:35.924Z,984.52
2023-02-02T01:17:35.885Z,984.63
2023-02-02T01:18:35.859Z,984.59
2023-02-02T01:19:35.881Z,984.52
2023-02-02T01:20:35.847Z,984.51
2023-02-02T01:21:35.842Z,984.57
2023-02-02T01:22:35.818Z,984.58
2023-02-02T01:23:35.832Z,984.58
2023-02-02T01:24:35.825Z,984.47
2023-02-02T01:25:35.812Z,984.64
2023-02-02T01:26:35.816Z,984.70
2023-02-02T01:27:35.817Z,984.69
2023-02-02T01:28:35.780Z,984.69
2023-02-02T01:29:35.757Z,984.65
2023-02-02T01:30:35.764Z,984.68
2023-02-02T01:31:35.851Z,984.61
2023-02-02T01:32:35.714Z,984.60
2023-02-02T01:33:35.719Z,984.61
2023-02-02T01:34:35.703Z,984.63
2023-02-02T01:35:35.734Z,984.62
2023-02-02T01:36:35.671Z,984.67
2023-02-02T01:37:35.672Z,984.72
2023-02-02T01:38:35.649Z,984.74
2023-02-02T01:39:35.673Z,984.76
2023-02-02T01:40:35.639Z,984.79
2023-02-02T01:41:35.639Z,984.80
2023-02-02T01:42:35.615Z,984.82
2023-02-02T01:43:35.637Z,984.85
2023-02-02T01:44:35.609Z,984.96
2023-02-02T01:45:35.648Z,984.95
2023-02-02T01:46:35.598Z,984.90
2023-02-02T01:47:35.595Z,984.89
2023-02-02T01:48:35.552Z,984.92
2023-02-02T01:49:35.556Z,984.95
2023-02-02T01:50:35.538Z,984.93
2023-02-02T01:51:35.533Z,984.91
2023-02-02T01:52:35.507Z,984.95
2023-02-02T01:53:35.544Z,985.01
2023-02-02T01:54:35.498Z,985.01
2023-02-02T01:55:35.525Z,985.00
2023-02-02T01:56:35.472Z,984.97
2023-02-02T01:57:35.472Z,984.89
2023-02-02T01:58:35.454Z,985.02
2023-02-02T01:59:35.470Z,985.06
2023-02-02T02:00:35.431Z,985.12
2023-02-02T02:01:35.517Z,985.03
2023-02-02T02:02:35.439Z,985.00
2023-02-02T02:03:35.413Z,984.97
2023-02-02T02:04:35.405Z,984.94
2023-02-02T02:05:35.397Z,984.95
2023-02-02T02:06:35.381Z,984.95
2023-02-02T02:07:35.390Z,984.97
2023-02-02T02:08:35.350Z,984.93
2023-02-02T02:09:35.358Z,984.92
2023-02-02T02:10:35.347Z,984.92
2023-02-02T02:11:35.348Z,984.92
2023-02-02T02:12:35.311Z,984.92
2023-02-02T02:13:35.315Z,984.90
2023-02-02T02:14:35.292Z,984.83
2023-02-02T02:15:35.311Z,984.80
2023-02-02T02:16:35.370Z,984.83
2023-02-02T02:17:35.287Z,984.84
2023-02-02T02:18:35.248Z,984.81
2023-02-02T02:19:35.252Z,984.81
2023-02-02T02:20:35.228Z,984.80
2023-02-02T02:21:35.264Z,984.83
2023-02-02T02:22:35.221Z,984.86
2023-02-02T02:23:35.235Z,984.88
2023-02-02T02:24:35.192Z,984.87
2023-02-02T02:25:35.212Z,984.87
2023-02-02T02:26:35.235Z,984.88
2023-02-02T02:27:35.190Z,984.89
2023-02-02T02:28:35.169Z,984.90
2023-02-02T02:29:35.168Z,984.91
2023-02-02T02:30:35.283Z,984.95
2023-02-02T02:31:35.242Z,984.96
2023-02-02T02:32:35.111Z,984.92
2023-02-02T02:33:35.131Z,984.92
2023-02-02T02:34:35.098Z,984.94
2023-02-02T02:35:35.108Z,984.98
2023-02-02T02:36:35.083Z,984.97
2023-02-02T02:37:35.116Z,984.97
2023-02-02T02:38:35.052Z,984.98
2023-02-02T02:39:35.070Z,984.99
2023-02-02T02:40:35.030Z,984.99
2023-02-02T02:41:35.039Z,984.99
2023-02-02T02:42:35.023Z,985.01
2023-02-02T02:43:35.015Z,985.01
2023-02-02T02:44:34.989Z,985.00
2023-02-02T02:45:35.010Z,984.99
2023-02-02T02:46:34.971Z,985.01
2023-02-02T02:47:34.974Z,985.04
2023-02-02T02:48:34.959Z,985.05
2023-02-02T02:49:34.962Z,985.06
2023-02-02T02:50:34.946Z,985.06
2023-02-02T02:51:34.939Z,985.07
2023-02-02T02:52:34.925Z,985.08
2023-02-02T02:53:34.911Z,985.07
2023-02-02T02:54:34.909Z,985.06
2023-02-02T02:55:34.885Z,985.06
2023-02-02T02:56:34.886Z,985.05
2023-02-02T02:57:34.859Z,985.06
2023-02-02T02:58:34.875Z,985.06
2023-02-02T02:59:34.862Z,985.08
2023-02-02T03:00:34.846Z,985.08
2023-02-02T03:01:34.859Z,985.10
2023-02-02T03:02:34.876Z,985.12
2023-02-02T03:03:34.807Z,985.14
2023-02-02T03:04:34.810Z,985.16
2023-02-02T03:05:34.793Z,985.14
2023-02-02T03:06:34.792Z,985.13
2023-02-02T03:07:34.764Z,985.14
2023-02-02T03:08:34.809Z,985.17
2023-02-02T03:09:34.758Z,985.18
2023-02-02T03:10:34.748Z,985.20
2023-02-02T03:11:34.723Z,985.20
2023-02-02T03:12:34.725Z,985.19
2023-02-02T03:13:34.706Z,985.18
2023-02-02T03:14:34.719Z,985.19
2023-02-02T03:15:34.749Z,985.20
2023-02-02T03:16:34.693Z,985.20
2023-02-02T03:17:34.662Z,985.19
2023-02-02T03:18:34.684Z,985.20
2023-02-02T03:19:34.641Z,985.21
2023-02-02T03:20:34.644Z,985.22
2023-02-02T03:21:34.637Z,985.24
2023-02-02T03:22:34.650Z,985.27
2023-02-02T03:23:34.622Z,985.30
2023-02-02T03:24:34.620Z,985.30
2023-02-02T03:25:34.600Z,985.32
2023-02-02T03:26:34.662Z,985.33
2023-02-02T03:27:34.561Z,985.30
2023-02-02T03:28:34.572Z,985.29
2023-02-02T03:29:34.546Z,985.26
2023-02-02T03:30:34.597Z,985.24
2023-02-02T03:31:34.540Z,985.25
2023-02-02T03:32:34.549Z,985.27
2023-02-02T03:33:34.507Z,985.27
2023-02-02T03:34:34.524Z,985.26
2023-02-02T03:35:34.483Z,985.21
2023-02-02T03:36:34.503Z,985.20
2023-02-02T03:37:34.481Z,985.18
2023-02-02T03:38:34.479Z,985.18
2023-02-02T03:39:34.459Z,985.25
2023-02-02T03:40:34.474Z,985.18
2023-02-02T03:41:34.439Z,985.25
2023-02-02T03:42:34.442Z,985.23
2023-02-02T03:43:34.400Z,985.20
2023-02-02T03:44:34.435Z,985.20
2023-02-02T03:45:34.387Z,985.20
2023-02-02T03:46:34.415Z,985.18
2023-02-02T03:47:34.372Z,985.18
2023-02-02T03:48:34.393Z,985.24
2023-02-02T03:49:34.343Z,985.26
2023-02-02T03:50:34.344Z,985.27
2023-02-02T03:51:34.334Z,985.30
2023-02-02T03:52:34.329Z,985.32
2023-02-02T03:53:34.298Z,985.31
2023-02-02T03:54:34.316Z,985.25
2023-02-02T03:55:34.280Z,985.19
2023-02-02T03:56:34.305Z,985.14
2023-02-02T03:57:34.281Z,985.11
2023-02-02T03:58:34.269Z,985.10
2023-02-02T03:59:34.269Z,985.07
2023-02-02T04:00:34.230Z,985.04
2023-02-02T04:01:34.237Z,985.05
2023-02-02T04:02:34.259Z,985.03
2023-02-02T04:03:34.268Z,985.01
2023-02-02T04:04:34.189Z,985.02
2023-02-02T04:05:34.212Z,985.01
2023-02-02T04:06:34.175Z,984.98
2023-02-02T04:07:34.173Z,984.97
2023-02-02T04:08:34.204Z,984.95
2023-02-02T04:09:34.155Z,984.95
2023-02-02T04:10:34.129Z,984.97
2023-02-02T04:11:34.172Z,984.95
2023-02-02T04:12:34.124Z,984.95
2023-02-02T04:13:34.142Z,984.93
2023-02-02T04:14:34.093Z,984.92
2023-02-02T04:15:34.119Z,984.92
2023-02-02T04:16:34.092Z,984.92
2023-02-02T04:17:34.079Z,984.93
2023-02-02T04:18:34.059Z,984.93
2023-02-02T04:19:34.075Z,984.94
2023-02-02T04:20:34.039Z,984.99
2023-02-02T04:21:34.051Z,985.04
2023-02-02T04:22:34.016Z,985.10
2023-02-02T04:23:34.040Z,985.16
2023-02-02T04:24:33.995Z,985.20
2023-02-02T04:25:34.009Z,985.24
2023-02-02T04:26:33.992Z,985.25
2023-02-02T04:27:34.031Z,985.30
2023-02-02T04:28:33.954Z,985.32
2023-02-02T04:29:33.981Z,985.34
2023-02-02T04:30:33.960Z,985.36
2023-02-02T04:31:33.982Z,985.39
2023-02-02T04:32:33.909Z,985.39
2023-02-02T04:33:33.937Z,985.42
2023-02-02T04:34:33.893Z,985.43
2023-02-02T04:35:33.927Z,985.45
2023-02-02T04:36:33.873Z,985.47
2023-02-02T04:37:33.883Z,985.42
2023-02-02T04:38:33.867Z,985.49
2023-02-02T04:39:33.858Z,985.59
2023-02-02T04:40:33.841Z,985.57
2023-02-02T04:41:33.850Z,985.61
2023-02-02T04:42:33.823Z,985.62
2023-02-02T04:43:33.832Z,985.61
2023-02-02T04:44:33.799Z,985.59
2023-02-02T04:45:33.897Z,985.62
2023-02-02T04:46:33.795Z,985.68
2023-02-02T04:47:33.796Z,985.58
2023-02-02T04:48:33.765Z,985.58
2023-02-02T04:49:33.771Z,985.63
2023-02-02T04:50:33.730Z,985.41
2023-02-02T04:51:33.750Z,985.30
2023-02-02T04:52:33.714Z,985.49
2023-02-02T04:53:33.731Z,985.43
2023-02-02T04:54:33.691Z,985.24
2023-02-02T04:55:33.700Z,985.55
2023-02-02T04:56:33.689Z,985.63
2023-02-02T04:57:33.701Z,985.44
2023-02-02T04:58:33.659Z,985.55
2023-02-02T04:59:33.675Z,985.58
2023-02-02T05:00:33.652Z,985.64
2023-02-02T05:01:33.639Z,985.69
2023-02-02T05:02:33.630Z,985.64
2023-02-02T05:03:33.635Z,985.58
2023-02-02T05:04:33.668Z,985.63
2023-02-02T05:05:33.595Z,985.63
2023-02-02T05:06:33.599Z,985.55
2023-02-02T05:07:33.593Z,985.58
2023-02-02T05:08:33.556Z,985.60
2023-02-02T05:09:33.567Z,985.61
2023-02-02T05:10:33.550Z,985.62
2023-02-02T05:11:33.561Z,985.63
2023-02-02T05:12:33.528Z,985.62
2023-02-02T05:13:33.534Z,985.63
2023-02-02T05:14:33.490Z,985.63
2023-02-02T05:15:33.505Z,985.64
2023-02-02T05:16:33.522Z,985.66
2023-02-02T05:17:33.486Z,985.65
2023-02-02T05:18:33.448Z,985.64
2023-02-02T05:19:33.461Z,985.66
2023-02-02T05:20:33.438Z,985.68
2023-02-02T05:21:33.445Z,985.69
2023-02-02T05:22:33.427Z,985.71
2023-02-02T05:23:33.447Z,985.71
2023-02-02T05:24:33.389Z,985.71
2023-02-02T05:25:33.410Z,985.71
2023-02-02T05:26:33.388Z,985.72
2023-02-02T05:27:33.385Z,985.72
2023-02-02T05:28:33.351Z,985.71
2023-02-02T05:29:33.385Z,985.72
2023-02-02T05:30:33.783Z,985.72
2023-02-02T05:31:33.419Z,985.73
2023-02-02T05:32:33.306Z,985.75
2023-02-02T05:33:33.333Z,985.75
2023-02-02T05:34:33.290Z,985.77
2023-02-02T05:35:33.311Z,985.76
2023-02-02T05:36:33.291Z,985.76
2023-02-02T05:37:33.308Z,985.77
2023-02-02T05:38:33.264Z,985.79
2023-02-02T05:39:33.277Z,985.83
2023-02-02T05:40:33.248Z,985.82
2023-02-02T05:41:33.246Z,985.84
2023-02-02T05:42:33.209Z,985.85
2023-02-02T05:43:33.250Z,985.84
2023-02-02T05:44:33.195Z,985.83
2023-02-02T05:45:33.266Z,985.83
2023-02-02T05:46:33.176Z,985.84
2023-02-02T05:47:33.184Z,985.85
2023-02-02T05:48:33.142Z,985.85
2023-02-02T05:49:33.179Z,985.85
2023-02-02T05:50:33.135Z,985.86
2023-02-02T05:51:33.133Z,985.87
2023-02-02T05:52:33.121Z,985.89
2023-02-02T05:53:33.120Z,985.91
2023-02-02T05:54:33.122Z,985.94
2023-02-02T05:55:33.093Z,985.95
2023-02-02T05:56:33.089Z,985.98
2023-02-02T05:57:33.095Z,985.96
2023-02-02T05:58:33.045Z,985.99
2023-02-02T05:59:33.085Z,985.98
2023-02-02T06:00:33.049Z,985.99
2023-02-02T06:01:33.032Z,985.99
2023-02-02T06:02:33.008Z,986.01
2023-02-02T06:03:33.115Z,986.01
2023-02-02T06:04:32.981Z,986.01
2023-02-02T06:05:33.028Z,986.03
2023-02-02T06:06:32.964Z,986.02
2023-02-02T06:07:32.986Z,986.02
2023-02-02T06:08:32.940Z,986.01
2023-02-02T06:09:32.963Z,986.00
2023-02-02T06:10:32.923Z,985.99
2023-02-02T06:11:32.960Z,985.96
2023-02-02T06:12:32.924Z,985.93
2023-02-02T06:13:32.924Z,985.94
2023-02-02T06:14:32.894Z,985.93
2023-02-02T06:15:32.970Z,985.95
2023-02-02T06:16:32.880Z,985.95
2023-02-02T06:17:32.867Z,985.95
2023-02-02T06:18:32.863Z,985.95
2023-02-02T06:19:32.849Z,985.96
2023-02-02T06:20:32.826Z,985.93
2023-02-02T06:21:32.837Z,985.94
2023-02-02T06:22:32.821Z,985.96
2023-02-02T06:23:32.819Z,985.97
2023-02-02T06:24:32.810Z,985.99
2023-02-02T06:25:32.790Z,986.00
2023-02-02T06:26:32.791Z,986.00
2023-02-02T06:27:32.730Z,986.02
2023-02-02T06:28:32.758Z,986.03
2023-02-02T06:29:32.749Z,986.02
2023-02-02T06:30:32.800Z,986.03
2023-02-02T06:31:32.784Z,986.01
2023-02-02T06:32:32.651Z,986.00
2023-02-02T06:33:32.737Z,985.99
2023-02-02T06:34:32.695Z,985.98
2023-02-02T06:35:32.698Z,985.99
2023-02-02T06:36:32.663Z,986.01
2023-02-02T06:37:32.679Z,986.02
2023-02-02T06:38:32.627Z,986.03
2023-02-02T06:39:32.598Z,986.04
2023-02-02T06:40:32.580Z,986.06
2023-02-02T06:41:32.587Z,986.08
2023-02-02T06:42:32.558Z,986.10
2023-02-02T06:43:32.580Z,986.12
2023-02-02T06:44:32.535Z,986.12
2023-02-02T06:45:32.603Z,986.11
2023-02-02T06:46:32.602Z,986.11
2023-02-02T06:47:32.529Z,986.09
2023-02-02T06:48:32.490Z,986.10
2023-02-02T06:49:32.518Z,986.09
2023-02-02T06:50:32.485Z,986.10
2023-02-02T06:51:32.477Z,986.10
2023-02-02T06:52:32.456Z,986.11
2023-02-02T06:53:32.481Z,986.10
2023-02-02T06:54:32.438Z,986.11
2023-02-02T06:55:32.437Z,986.12
2023-02-02T06:56:32.414Z,986.12
2023-02-02T06:57:32.420Z,986.12
2023-02-02T06:58:32.392Z,986.13
2023-02-02T06:59:32.405Z,986.14
2023-02-02T07:00:32.385Z,986.14
2023-02-02T07:01:32.441Z,986.15
2023-02-02T07:02:32.402Z,986.14
2023-02-02T07:03:32.367Z,986.14
2023-02-02T07:04:32.326Z,986.12
2023-02-02T07:05:32.494Z,986.12
2023-02-02T07:06:32.314Z,986.11
2023-02-02T07:07:32.310Z,986.11
2023-02-02T07:08:32.290Z,986.09
2023-02-02T07:09:32.305Z,986.10
2023-02-02T07:11:13.314Z,986.10
2023-02-02T07:11:34.738Z,986.11
2023-02-02T07:12:32.249Z,986.10
2023-02-02T07:13:32.266Z,986.08
2023-02-02T07:14:32.226Z,986.08
2023-02-02T07:15:32.230Z,986.09
2023-02-02T07:16:32.260Z,986.11
2023-02-02T07:17:32.212Z,986.13
2023-02-02T07:18:32.189Z,986.11
2023-02-02T07:19:32.209Z,986.15
2023-02-02T07:20:32.175Z,986.14
2023-02-02T07:21:32.156Z,986.17
2023-02-02T07:22:32.145Z,986.16
2023-02-02T07:23:32.164Z,986.18
2023-02-02T07:24:32.127Z,986.18
2023-02-02T07:25:32.193Z,986.20
2023-02-02T07:26:32.145Z,986.18
2023-02-02T07:27:32.110Z,986.19
2023-02-02T07:28:32.084Z,986.19
2023-02-02T07:29:32.093Z,986.19
2023-02-02T07:30:32.107Z,986.20
2023-02-02T07:31:34.822Z,986.24
2023-02-02T07:32:32.051Z,986.25
2023-02-02T07:33:32.049Z,986.24
2023-02-02T07:34:32.056Z,986.25
2023-02-02T07:35:32.046Z,986.25
2023-02-02T07:36:32.022Z,986.26
2023-02-02T07:37:32.026Z,986.26
2023-02-02T07:38:31.997Z,986.26
2023-02-02T07:39:31.996Z,986.26
2023-02-02T07:40:31.963Z,986.27
2023-02-02T07:41:31.971Z,986.28
2023-02-02T07:42:31.975Z,986.28
2023-02-02T07:43:31.950Z,986.28
2023-02-02T07:44:31.928Z,986.30
2023-02-02T07:45:31.930Z,986.32
2023-02-02T07:46:32.001Z,986.32
2023-02-02T07:47:31.937Z,986.33
2023-02-02T07:48:31.896Z,986.34
2023-02-02T07:49:31.905Z,986.34
2023-02-02T07:50:31.871Z,986.33
2023-02-02T07:51:31.879Z,986.35
2023-02-02T07:52:31.856Z,986.35
2023-02-02T07:53:31.865Z,986.34
2023-02-02T07:54:31.855Z,986.35
2023-02-02T07:55:32.096Z,986.35
2023-02-02T07:56:31.806Z,986.35
2023-02-02T07:57:31.838Z,986.35
2023-02-02T07:58:31.807Z,986.34
2023-02-02T07:59:32.556Z,986.36
2023-02-02T08:00:31.831Z,986.38
2023-02-02T08:01:31.790Z,986.39
2023-02-02T08:02:31.784Z,986.40
2023-02-02T08:03:31.784Z,986.40
2023-02-02T08:04:31.730Z,986.39
2023-02-02T08:05:31.733Z,986.39
2023-02-02T08:06:31.731Z,986.39
2023-02-02T08:07:31.742Z,986.38
2023-02-02T08:08:31.695Z,986.38
2023-02-02T08:09:31.713Z,986.41
2023-02-02T08:10:31.671Z,986.39
2023-02-02T08:11:31.668Z,986.37
2023-02-02T08:12:31.645Z,986.38
2023-02-02T08:13:31.675Z,986.37
2023-02-02T08:14:31.642Z,986.37
2023-02-02T08:15:31.616Z,986.40
2023-02-02T08:16:31.717Z,986.40
2023-02-02T08:17:31.599Z,986.40
2023-02-02T08:18:31.613Z,986.41
2023-02-02T08:19:31.604Z,986.43
2023-02-02T08:20:31.579Z,986.42
2023-02-02T08:21:31.554Z,986.46
2023-02-02T08:22:31.564Z,986.44
2023-02-02T08:23:31.551Z,986.44
2023-02-02T08:24:31.555Z,986.46
2023-02-02T08:25:31.523Z,986.46
2023-02-02T08:26:31.561Z,986.46
2023-02-02T08:27:31.507Z,986.46
2023-02-02T08:28:31.506Z,986.45
2023-02-02T08:29:31.469Z,986.43
2023-02-02T08:30:31.522Z,986.42
2023-02-02T08:31:31.538Z,986.41
2023-02-02T08:32:31.475Z,986.42
2023-02-02T08:33:31.441Z,986.41
2023-02-02T08:34:31.454Z,986.42
2023-02-02T08:35:31.417Z,986.44
2023-02-02T08:36:31.431Z,986.43
2023-02-02T08:37:31.394Z,986.42
2023-02-02T08:38:31.402Z,986.43
2023-02-02T08:39:31.375Z,986.47
2023-02-02T08:40:31.453Z,986.49
2023-02-02T08:41:31.379Z,986.48
2023-02-02T08:42:31.363Z,986.45
2023-02-02T08:43:31.330Z,986.44
2023-02-02T08:44:45.002Z,986.45
2023-02-02T08:46:05.879Z,986.41
2023-02-02T08:46:31.361Z,986.44
2023-02-02T08:47:31.299Z,986.45
2023-02-02T08:48:31.297Z,986.47
2023-02-02T08:49:31.274Z,986.47
2023-02-02T08:50:31.273Z,986.46
2023-02-02T08:51:31.261Z,986.47
2023-02-02T08:52:31.285Z,986.49
2023-02-02T08:53:31.234Z,986.50
2023-02-02T08:54:31.249Z,986.51
2023-02-02T08:55:31.215Z,986.48
2023-02-02T08:56:31.260Z,986.47
2023-02-02T08:57:31.193Z,986.50
2023-02-02T08:58:31.201Z,986.50
2023-02-02T08:59:31.191Z,986.48
2023-02-02T09:00:31.179Z,986.48
2023-02-02T09:01:31.262Z,986.49
2023-02-02T09:02:31.221Z,986.47
2023-02-02T09:03:31.131Z,986.48
2023-02-02T09:04:31.138Z,986.50
2023-02-02T09:05:31.111Z,986.52
2023-02-02T09:06:31.166Z,986.49
2023-02-02T09:07:31.103Z,986.50
2023-02-02T09:08:31.159Z,986.53
2023-02-02T09:09:31.100Z,986.56
2023-02-02T09:10:31.089Z,986.53
2023-02-02T09:11:31.059Z,986.54
2023-02-02T09:12:31.095Z,986.56
2023-02-02T09:13:31.044Z,986.57
2023-02-02T09:14:31.049Z,986.56
2023-02-02T09:15:31.009Z,986.55
2023-02-02T09:16:31.113Z,986.51
2023-02-02T09:17:31.014Z,986.50
2023-02-02T09:18:31.009Z,986.53
2023-02-02T09:19:30.971Z,986.54
2023-02-02T09:20:30.977Z,986.55
2023-02-02T09:21:30.955Z,986.55
2023-02-02T09:22:30.972Z,986.52
2023-02-02T09:23:30.948Z,986.51
2023-02-02T09:24:30.951Z,986.54
2023-02-02T09:25:30.942Z,986.55
2023-02-02T09:26:30.952Z,986.52
2023-02-02T09:27:30.886Z,986.51
2023-02-02T09:28:30.912Z,986.53
2023-02-02T09:29:30.868Z,986.57
2023-02-02T09:30:30.871Z,986.58
2023-02-02T09:31:30.879Z,986.56
2023-02-02T09:32:30.864Z,986.57
2023-02-02T09:33:30.839Z,986.56
2023-02-02T09:34:30.847Z,986.55
2023-02-02T09:35:30.839Z,986.54
2023-02-02T09:36:31.129Z,986.56
2023-02-02T09:37:30.784Z,986.53
2023-02-02T09:38:30.801Z,986.58
2023-02-02T09:39:30.762Z,986.58
2023-02-02T09:40:30.770Z,986.56
2023-02-02T09:41:30.745Z,986.58
2023-02-02T09:42:37.287Z,986.58
2023-02-02T09:43:30.730Z,986.58
2023-02-02T09:44:30.750Z,986.59
2023-02-02T09:45:30.703Z,986.61
2023-02-02T09:46:30.743Z,986.59
2023-02-02T09:47:30.707Z,986.60
2023-02-02T09:48:30.740Z,986.62
2023-02-02T09:49:30.790Z,986.65
2023-02-02T09:50:30.666Z,986.65
2023-02-02T09:51:30.653Z,986.68
2023-02-02T09:52:30.658Z,986.66
2023-02-02T09:53:30.637Z,986.67
2023-02-02T09:54:30.642Z,986.67
2023-02-02T09:55:30.623Z,986.69
2023-02-02T09:56:30.631Z,986.68
2023-02-02T09:57:30.574Z,986.74
2023-02-02T09:58:30.597Z,986.70
2023-02-02T09:59:30.556Z,986.70
2023-02-02T10:00:30.592Z,986.69
2023-02-02T10:01:30.601Z,986.70
2023-02-02T10:02:30.552Z,986.69
2023-02-02T10:03:30.560Z,986.68
2023-02-02T10:04:30.537Z,986.71
2023-02-02T10:05:30.543Z,986.70
2023-02-02T10:06:30.523Z,986.67
2023-02-02T10:07:30.475Z,986.65
2023-02-02T10:08:34.946Z,986.66
2023-02-02T10:09:30.465Z,986.63
2023-02-02T10:10:30.506Z,986.63
2023-02-02T10:11:30.437Z,986.66
2023-02-02T10:12:30.446Z,986.71
2023-02-02T10:13:30.409Z,986.69
2023-02-02T10:14:30.480Z,986.67
2023-02-02T10:15:30.482Z,986.70
2023-02-02T10:16:30.422Z,986.69
2023-02-02T10:17:30.390Z,986.71
2023-02-02T10:18:30.400Z,986.67
2023-02-02T10:19:30.346Z,986.68
2023-02-02T10:20:30.397Z,986.69
2023-02-02T10:21:30.343Z,986.66
2023-02-02T10:22:30.353Z,986.69
2023-02-02T10:23:30.311Z,986.66
2023-02-02T10:24:30.340Z,986.63
2023-02-02T10:25:30.289Z,986.62
2023-02-02T10:26:30.375Z,986.61
2023-02-02T10:27:30.263Z,986.62
2023-02-02T10:28:30.269Z,986.61
2023-02-02T10:29:40.108Z,986.61
2023-02-02T10:30:30.295Z,986.58
2023-02-02T10:31:30.342Z,986.60
2023-02-02T10:32:30.266Z,986.56
2023-02-02T10:33:30.205Z,986.57
2023-02-02T10:34:30.207Z,986.54
2023-02-02T10:35:30.192Z,986.59
2023-02-02T10:36:30.184Z,986.61
2023-02-02T10:37:30.167Z,986.56
2023-02-02T10:38:30.179Z,986.55
2023-02-02T10:39:30.142Z,986.60
2023-02-02T10:40:30.162Z,986.56
2023-02-02T10:41:30.120Z,986.55
2023-02-02T10:42:30.145Z,986.57
2023-02-02T10:43:30.106Z,986.56
2023-02-02T10:44:30.136Z,986.55
2023-02-02T10:45:30.096Z,986.60
2023-02-02T10:46:30.108Z,986.51
2023-02-02T10:47:30.065Z,986.58
2023-02-02T10:48:30.099Z,986.54
2023-02-02T10:49:30.029Z,986.57
2023-02-02T10:50:30.079Z,986.55
2023-02-02T10:51:30.020Z,986.52
2023-02-02T10:52:30.039Z,986.54
2023-02-02T10:53:29.997Z,986.55
2023-02-02T10:54:30.091Z,986.55
2023-02-02T10:55:29.973Z,986.51
2023-02-02T10:56:30.022Z,986.51
2023-02-02T10:57:29.950Z,986.48
2023-02-02T10:58:29.985Z,986.48
2023-02-02T10:59:30.066Z,986.50
2023-02-02T11:00:30.220Z,986.48
2023-02-02T11:01:29.970Z,986.43
2023-02-02T11:02:29.951Z,986.49
2023-02-02T11:03:29.906Z,986.46
2023-02-02T11:04:29.921Z,986.43
2023-02-02T11:05:29.862Z,986.42
2023-02-02T11:06:29.891Z,986.46
2023-02-02T11:07:29.856Z,986.42
2023-02-02T11:08:29.904Z,986.42
2023-02-02T11:09:29.854Z,986.46
2023-02-02T11:10:29.839Z,986.39
2023-02-02T11:11:29.822Z,986.38
2023-02-02T11:12:29.800Z,986.44
2023-02-02T11:13:29.830Z,986.39
2023-02-02T11:14:29.807Z,986.41
2023-02-02T11:15:29.773Z,986.40
2023-02-02T11:16:41.433Z,986.45
2023-02-02T11:17:29.741Z,986.41
2023-02-02T11:18:29.824Z,986.39
2023-02-02T11:19:29.747Z,986.42
2023-02-02T11:20:29.777Z,986.41
2023-02-02T11:21:29.704Z,986.41
2023-02-02T11:22:29.703Z,986.44
2023-02-02T11:23:29.674Z,986.47
2023-02-02T11:24:29.709Z,986.43
2023-02-02T11:25:29.660Z,986.39
2023-02-02T11:26:29.711Z,986.40
2023-02-02T11:27:29.634Z,986.39
2023-02-02T11:28:29.649Z,986.45
2023-02-02T11:29:29.654Z,986.42
2023-02-02T11:30:29.639Z,986.45
2023-02-02T11:31:29.698Z,986.46
2023-02-02T11:32:29.637Z,986.47
2023-02-02T11:33:29.561Z,986.44
2023-02-02T11:34:29.597Z,986.43
2023-02-02T11:35:29.556Z,986.44
2023-02-02T11:36:29.557Z,986.40
2023-02-02T11:37:29.527Z,986.38
2023-02-02T11:38:29.531Z,986.34
2023-02-02T11:39:29.542Z,986.35
2023-02-02T11:40:29.522Z,986.40
2023-02-02T11:41:29.509Z,986.38
2023-02-02T11:42:29.525Z,986.46
2023-02-02T11:43:29.490Z,986.40
2023-02-02T11:44:29.476Z,986.52
2023-02-02T11:45:29.459Z,986.45
2023-02-02T11:46:29.585Z,986.43
2023-02-02T11:47:29.424Z,986.40
2023-02-02T11:48:29.435Z,986.40
2023-02-02T11:49:29.391Z,986.42
2023-02-02T11:50:29.421Z,986.38
2023-02-02T11:51:29.388Z,986.34
2023-02-02T11:52:32.100Z,986.38
2023-02-02T11:53:29.359Z,986.33
2023-02-02T11:54:29.389Z,986.33
2023-02-02T11:55:29.345Z,986.32
2023-02-02T11:56:29.349Z,986.29
2023-02-02T11:57:29.322Z,986.34
2023-02-02T11:58:29.331Z,986.32
2023-02-02T11:59:29.314Z,986.32
2023-02-02T12:00:29.375Z,986.33
2023-02-02T12:01:29.325Z,986.21
2023-02-02T12:02:29.275Z,986.26
2023-02-02T12:03:29.314Z,986.32
2023-02-02T12:04:32.231Z,986.30
2023-02-02T12:05:29.268Z,986.32
2023-02-02T12:06:29.284Z,986.31
2023-02-02T12:07:29.204Z,986.34
2023-02-02T12:08:29.297Z,986.34
2023-02-02T12:09:29.192Z,986.41
2023-02-02T12:10:31.657Z,986.34
2023-02-02T12:11:29.188Z,986.35
2023-02-02T12:12:29.181Z,986.36
2023-02-02T12:13:29.157Z,986.36
2023-02-02T12:14:29.169Z,986.45
2023-02-02T12:15:29.124Z,986.34
2023-02-02T12:16:29.340Z,986.31
2023-02-02T12:17:29.109Z,986.40
2023-02-02T12:18:29.128Z,986.34
2023-02-02T12:19:29.099Z,986.43
2023-02-02T12:20:29.244Z,986.33
2023-02-02T12:21:29.073Z,986.37
2023-02-02T12:22:29.104Z,986.33
2023-02-02T12:23:29.048Z,986.27
2023-02-02T12:24:29.060Z,986.30
2023-02-02T12:25:29.035Z,986.35
2023-02-02T12:26:29.050Z,986.38
2023-02-02T12:27:29.025Z,986.38
2023-02-02T12:28:29.044Z,986.28